Time;durP1;ratioP1;P1;durP2;ratioP2;P2;SDS_P1;SDS_P2;PMS_P1;PMS_P2;Temp;Humidity;BMP_temperature;BMP_pressure;BME280_temperature;BME280_humidity;BME280_pressure;Samples;Min_cycle;Max_cycle;Signal;HPM_P1;HPM_P2
2022/03/02 00:01:02;;;;;;;0.40;0.30;;;;;;;-0.66;75.36;102382.22;5073385;28;20513;-73
2022/03/02 00:03:28;;;;;;;0.40;0.30;;;;;;;-0.89;76.91;102387.56;5073557;28;20479;-74
2022/03/02 00:05:55;;;;;;;0.40;0.30;;;;;;;-0.96;78.80;102399.97;5073380;28;20450;-73
2022/03/02 00:08:22;;;;;;;0.40;0.30;;;;;;;-0.84;79.60;102384.38;5073302;28;20449;-74
2022/03/02 00:10:49;;;;;;;0.40;0.30;;;;;;;-0.77;79.60;102382.66;5073593;28;20908;-74
2022/03/02 00:13:15;;;;;;;0.40;0.30;;;;;;;-0.68;78.12;102383.41;5073129;28;20449;-74
2022/03/02 00:15:42;;;;;;;0.40;0.30;;;;;;;-0.69;77.74;102379.91;5073273;28;20482;-73
2022/03/02 00:18:08;;;;;;;0.40;0.30;;;;;;;-0.78;77.70;102379.16;5073028;28;20518;-73
2022/03/02 00:20:35;;;;;;;0.40;0.30;;;;;;;-0.69;77.89;102373.78;5073228;28;20441;-74
2022/03/02 00:23:02;;;;;;;9.10;8.60;;;;;;;-0.65;77.06;102380.38;5073014;28;20823;-74
2022/03/02 00:25:30;;;;;;;0.40;0.30;;;;;;;-0.66;77.57;102365.44;5073087;28;20437;-74
2022/03/02 00:27:56;;;;;;;0.40;0.30;;;;;;;-0.69;77.83;102371.94;5073018;28;20437;-74
2022/03/02 00:30:26;;;;;;;0.40;0.30;;;;;;;-0.47;77.04;102370.22;5073331;28;20442;-74
2022/03/02 00:32:53;;;;;;;0.40;0.30;;;;;;;-0.51;77.44;102369.75;5072910;28;20851;-74
2022/03/02 00:35:19;;;;;;;2.00;1.90;;;;;;;-0.63;79.18;102373.84;5072972;28;20461;-74
2022/03/02 00:37:46;;;;;;;0.40;0.30;;;;;;;-0.46;78.64;102366.53;5072960;28;20453;-73
2022/03/02 00:40:14;;;;;;;0.40;0.30;;;;;;;-0.49;79.02;102371.38;5072313;28;20511;-74
2022/03/02 00:42:43;;;;;;;0.40;0.30;;;;;;;-0.39;78.27;102369.28;5072881;28;20488;-73
2022/03/02 00:45:10;;;;;;;0.40;0.30;;;;;;;-0.37;77.58;102368.09;5072822;28;20461;-72
2022/03/02 00:47:37;;;;;;;0.40;0.30;;;;;;;-0.34;77.51;102372.22;5072408;28;20966;-73
2022/03/02 00:50:05;;;;;;;0.40;0.30;;;;;;;-0.48;78.02;102371.22;5072865;28;20491;-73
2022/03/02 00:52:32;;;;;;;0.40;0.30;;;;;;;-0.61;79.81;102360.38;5072500;28;20437;-73
2022/03/02 00:54:58;;;;;;;0.40;0.30;;;;;;;-0.60;79.58;102364.69;5072512;28;20526;-74
2022/03/02 00:57:25;;;;;;;0.40;0.30;;;;;;;-0.47;78.19;102367.53;5072776;28;20493;-74
2022/03/02 00:59:53;;;;;;;0.40;0.30;;;;;;;-0.39;76.39;102359.47;5072804;28;20444;-73
2022/03/02 01:02:19;;;;;;;0.40;0.30;;;;;;;-0.53;77.41;102357.66;5072666;28;20543;-74
2022/03/02 01:04:45;;;;;;;0.40;0.30;;;;;;;-0.56;77.37;102350.84;5072661;28;20808;-74
2022/03/02 01:07:12;;;;;;;0.40;0.30;;;;;;;-0.55;76.77;102346.34;5072622;28;20441;-73
2022/03/02 01:09:38;;;;;;;0.40;0.30;;;;;;;-0.65;77.86;102351.13;5072690;28;20449;-74
2022/03/02 01:12:05;;;;;;;0.40;0.30;;;;;;;-0.68;78.64;102354.13;5072727;28;20445;-73
2022/03/02 01:14:31;;;;;;;0.40;0.30;;;;;;;-0.60;78.57;102352.22;5072496;28;20457;-74
2022/03/02 01:16:59;;;;;;;0.40;0.30;;;;;;;-0.70;78.99;102350.84;5072385;28;20461;-73
2022/03/02 01:19:26;;;;;;;0.40;0.30;;;;;;;-0.59;78.25;102345.88;5072531;28;20498;-73
2022/03/02 01:21:53;;;;;;;0.40;0.30;;;;;;;-0.48;77.17;102349.94;5072658;28;20539;-72
2022/03/02 01:24:19;;;;;;;0.40;0.30;;;;;;;-0.53;78.05;102347.00;5071935;28;20474;-74
2022/03/02 01:26:46;;;;;;;0.40;0.30;;;;;;;-0.71;79.94;102350.00;5072474;28;20441;-73
2022/03/02 01:29:13;;;;;;;0.40;0.30;;;;;;;-0.79;80.46;102342.94;5072432;28;20565;-73
2022/03/02 01:31:40;;;;;;;0.40;0.30;;;;;;;-0.78;81.75;102344.59;5072458;28;20800;-73
2022/03/02 01:34:07;;;;;;;0.40;0.30;;;;;;;-0.81;82.47;102339.63;5072339;28;20461;-73
2022/03/02 01:36:34;;;;;;;0.57;0.57;;;;;;;-0.65;80.88;102329.84;5072086;28;20445;-73
2022/03/02 01:39:00;;;;;;;0.40;0.30;;;;;;;-0.61;80.38;102325.78;5072367;28;20441;-73
2022/03/02 01:41:27;;;;;;;0.40;0.30;;;;;;;-0.51;79.41;102332.47;5071927;28;21020;-72
2022/03/02 01:43:55;;;;;;;2.00;1.90;;;;;;;-0.59;79.86;102331.75;5072200;28;20464;-73
2022/03/02 01:46:23;;;;;;;0.40;0.30;;;;;;;-0.62;80.31;102330.28;5072541;28;20822;-73
2022/03/02 01:48:50;;;;;;;0.40;0.30;;;;;;;-0.67;80.14;102335.31;5072310;28;20445;-73
2022/03/02 01:51:19;;;;;;;4.10;3.90;;;;;;;-0.70;80.23;102327.72;5075136;28;20445;-73
2022/03/02 01:53:46;;;;;;;0.40;0.30;;;;;;;-0.64;80.44;102321.66;5075786;28;20456;-73
2022/03/02 01:56:12;;;;;;;0.40;0.30;;;;;;;-0.59;80.25;102316.59;5075893;28;20441;-72
2022/03/02 01:58:39;;;;;;;0.40;0.30;;;;;;;-0.61;80.53;102308.00;5075857;28;20445;-73
2022/03/02 02:01:07;;;;;;;3.50;3.33;;;;;;;-0.65;80.53;102306.72;5075747;28;20963;-73
2022/03/02 02:03:34;;;;;;;0.40;0.30;;;;;;;-0.64;80.81;102307.53;5075521;28;20513;-73
2022/03/02 02:06:00;;;;;;;0.63;0.60;;;;;;;-0.48;79.37;102299.38;5075732;28;20477;-73
2022/03/02 02:08:28;;;;;;;0.40;0.30;;;;;;;-0.57;78.97;102293.31;5075612;28;20446;-73
2022/03/02 02:10:56;;;;;;;0.43;0.43;;;;;;;-0.72;81.75;102295.13;5075621;28;20448;-73
2022/03/02 02:13:22;;;;;;;0.40;0.30;;;;;;;-0.86;82.45;102294.13;5075645;28;20878;-74
2022/03/02 02:15:49;;;;;;;0.40;0.30;;;;;;;-0.70;81.67;102281.66;5075794;28;20437;-74
2022/03/02 02:18:15;;;;;;;1.03;1.03;;;;;;;-0.76;81.14;102284.03;5075439;28;20461;-73
2022/03/02 02:20:43;;;;;;;0.40;0.30;;;;;;;-0.70;81.75;102276.34;5075071;28;20943;-73
2022/03/02 02:23:09;;;;;;;0.40;0.30;;;;;;;-0.72;82.92;102273.03;5075242;28;20484;-74
2022/03/02 02:25:36;;;;;;;0.40;0.30;;;;;;;-0.61;82.22;102272.59;5075138;28;20992;-74
2022/03/02 02:28:03;;;;;;;0.40;0.30;;;;;;;-0.57;80.99;102272.03;5075306;28;20449;-74
2022/03/02 02:30:30;;;;;;;2.40;2.00;;;;;;;-0.66;81.86;102273.13;5075331;28;20444;-74
2022/03/02 02:32:57;;;;;;;0.40;0.30;;;;;;;-0.68;82.45;102269.00;5075109;28;20954;-74
2022/03/02 02:35:25;;;;;;;0.40;0.30;;;;;;;-0.58;82.33;102266.88;5075177;28;20468;-74
2022/03/02 02:37:54;;;;;;;0.40;0.30;;;;;;;-0.52;81.60;102274.13;5075433;28;20453;-75
2022/03/02 02:40:21;;;;;;;0.40;0.30;;;;;;;-0.54;82.76;102270.81;5075014;28;20969;-74
2022/03/02 02:42:48;;;;;;;0.40;0.30;;;;;;;-0.47;82.35;102261.09;5075294;28;20561;-73
2022/03/02 02:45:17;;;;;;;0.40;0.30;;;;;;;-0.51;82.11;102265.13;5074784;28;20461;-73
2022/03/02 02:47:44;;;;;;;0.40;0.30;;;;;;;-0.63;82.65;102262.09;5074974;28;20460;-73
2022/03/02 02:50:22;;;;;;;0.40;0.30;;;;;;;-0.52;82.76;102252.84;5075004;28;20461;-73
2022/03/02 02:52:49;;;;;;;0.40;0.30;;;;;;;-0.56;82.18;102251.56;5075004;28;20428;-73
2022/03/02 02:55:17;;;;;;;0.40;0.30;;;;;;;-0.52;81.88;102250.19;5074883;28;20461;-73
2022/03/02 02:57:44;;;;;;;0.40;0.30;;;;;;;-0.38;80.68;102238.66;5074871;28;20440;-73
2022/03/02 03:00:13;;;;;;;0.40;0.30;;;;;;;-0.38;80.85;102244.00;5074812;28;20448;-73
2022/03/02 03:02:39;;;;;;;0.40;0.30;;;;;;;-0.44;82.52;102244.75;5073755;28;21005;-73
2022/03/02 03:05:10;;;;;;;0.40;0.30;;;;;;;-0.40;82.92;102243.38;5074672;28;20465;-72
2022/03/02 03:07:36;;;;;;;0.40;0.30;;;;;;;-0.29;83.46;102244.72;5074711;28;20433;-73
2022/03/02 03:10:03;;;;;;;0.40;0.30;;;;;;;-0.29;82.82;102242.88;5074665;28;20442;-73
2022/03/02 03:12:31;;;;;;;0.40;0.30;;;;;;;-0.31;82.98;102241.38;5074249;28;20958;-74
2022/03/02 03:14:58;;;;;;;0.40;0.40;;;;;;;-0.41;83.14;102239.03;5074452;28;20462;-74
2022/03/02 03:17:24;;;;;;;0.40;0.30;;;;;;;-0.42;82.35;102241.91;5074257;28;20821;-74
2022/03/02 03:19:50;;;;;;;0.40;0.30;;;;;;;-0.41;82.77;102236.38;5074090;28;20797;-74
2022/03/02 03:22:17;;;;;;;0.40;0.30;;;;;;;-0.40;83.16;102234.53;5074368;28;20530;-73
2022/03/02 03:24:43;;;;;;;0.40;0.30;;;;;;;-0.34;82.06;102236.47;5074248;28;20469;-73
2022/03/02 03:27:10;;;;;;;0.40;0.30;;;;;;;-0.21;80.76;102231.28;5074598;28;20437;-73
2022/03/02 03:29:38;;;;;;;0.40;0.30;;;;;;;-0.20;81.16;102234.78;5074270;28;20441;-73
2022/03/02 03:32:06;;;;;;;0.40;0.30;;;;;;;-0.26;81.83;102234.50;5074261;28;20476;-73
2022/03/02 03:34:32;;;;;;;0.40;0.30;;;;;;;-0.32;82.98;102232.59;5074174;28;20473;-73
2022/03/02 03:36:59;;;;;;;0.40;0.30;;;;;;;-0.30;82.50;102232.41;5074062;28;20433;-74
2022/03/02 03:39:25;;;;;;;0.40;0.30;;;;;;;-0.25;82.88;102216.69;5074030;28;20449;-73
2022/03/02 03:41:52;;;;;;;0.40;0.30;;;;;;;-0.33;82.63;102224.78;5073662;28;20453;-73
2022/03/02 03:44:18;;;;;;;0.40;0.30;;;;;;;-0.34;83.34;102223.97;5073930;28;20470;-73
2022/03/02 03:46:46;;;;;;;0.40;0.30;;;;;;;-0.36;83.46;102220.66;5073915;28;20449;-73
2022/03/02 03:49:13;;;;;;;0.40;0.30;;;;;;;-0.30;83.73;102227.09;5073822;28;20441;-74
2022/03/02 03:51:39;;;;;;;0.40;0.30;;;;;;;-0.19;82.94;102215.09;5073458;28;20934;-72
2022/03/02 03:54:06;;;;;;;2.20;2.10;;;;;;;-0.17;83.57;102210.44;5073883;28;20464;-73
2022/03/02 03:56:33;;;;;;;0.40;0.30;;;;;;;-0.08;83.22;102210.13;5073762;28;20449;-73
2022/03/02 03:58:59;;;;;;;0.40;0.30;;;;;;;-0.12;84.01;102210.69;5073744;28;20437;-73
2022/03/02 04:01:26;;;;;;;0.40;0.30;;;;;;;-0.07;84.09;102211.75;5073707;28;20473;-73
2022/03/02 04:03:54;;;;;;;0.40;0.30;;;;;;;-0.13;84.75;102211.72;5073535;28;20488;-73
2022/03/02 04:06:21;;;;;;;0.40;0.30;;;;;;;-0.09;84.57;102215.63;5073612;28;20483;-73
2022/03/02 04:08:47;;;;;;;0.40;0.30;;;;;;;0.02;84.16;102217.78;5073600;28;20445;-73
2022/03/02 04:11:14;;;;;;;0.40;0.30;;;;;;;0.05;83.99;102220.06;5073270;28;20816;-73
2022/03/02 04:13:40;;;;;;;0.40;0.30;;;;;;;-0.01;83.91;102216.31;5072532;28;20461;-73
2022/03/02 04:16:07;;;;;;;0.40;0.30;;;;;;;-0.02;84.30;102219.19;5073472;28;20441;-72
2022/03/02 04:18:33;;;;;;;0.40;0.30;;;;;;;-0.01;84.17;102218.16;5073318;28;20456;-73
2022/03/02 04:21:01;;;;;;;0.40;0.30;;;;;;;0.02;84.05;102212.47;5073446;28;20441;-73
2022/03/02 04:23:28;;;;;;;0.40;0.30;;;;;;;-0.03;82.98;102214.88;5073470;28;20895;-72
2022/03/02 04:25:55;;;;;;;0.40;0.30;;;;;;;-0.02;83.07;102216.50;5073338;28;20437;-70
2022/03/02 04:28:22;;;;;;;0.40;0.30;;;;;;;-0.14;83.27;102215.38;5073040;28;20950;-73
2022/03/02 04:30:49;;;;;;;0.40;0.30;;;;;;;-0.20;83.27;102213.47;5073194;28;20441;-72
2022/03/02 04:33:16;;;;;;;0.40;0.30;;;;;;;-0.32;83.20;102216.63;5073137;28;20448;-72
2022/03/02 04:35:42;;;;;;;4.77;4.53;;;;;;;-0.24;83.36;102212.19;5073166;28;20811;-72
2022/03/02 04:38:10;;;;;;;0.40;0.30;;;;;;;-0.28;83.14;102219.72;5073154;28;20445;-72
2022/03/02 04:40:37;;;;;;;0.40;0.30;;;;;;;-0.35;83.52;102216.19;5073297;28;20477;-72
2022/03/02 04:43:05;;;;;;;31.20;28.10;;;;;;;-0.34;83.85;102215.16;5073360;28;20481;-72
2022/03/02 04:45:31;;;;;;;0.40;0.30;;;;;;;-0.50;84.32;102213.53;5073386;28;20449;-72
2022/03/02 04:47:59;;;;;;;0.90;0.90;;;;;;;-0.48;84.07;102211.53;5073042;28;20441;-72
2022/03/02 04:50:26;;;;;;;2.10;2.00;;;;;;;-0.47;83.50;102212.34;5073035;28;20445;-72
2022/03/02 04:52:54;;;;;;;0.40;0.30;;;;;;;-0.57;83.79;102208.16;5073094;28;20873;-72
2022/03/02 04:55:23;;;;;;;0.40;0.30;;;;;;;-0.62;84.65;102196.41;5072984;28;20839;-72
2022/03/02 04:57:51;;;;;;;0.40;0.30;;;;;;;-0.60;84.71;102202.38;5073036;28;20444;-73
2022/03/02 05:00:20;;;;;;;0.40;0.30;;;;;;;-0.53;85.12;102195.31;5072985;28;20449;-72
2022/03/02 05:02:46;;;;;;;0.40;0.30;;;;;;;-0.46;84.45;102195.38;5072891;28;20485;-72
2022/03/02 05:05:17;;;;;;;0.40;0.30;;;;;;;-0.42;83.89;102201.97;5072887;28;20514;-72
2022/03/02 05:07:45;;;;;;;0.40;0.30;;;;;;;-0.63;84.83;102187.59;5072918;28;20434;-72
2022/03/02 05:10:13;;;;;;;0.40;0.30;;;;;;;-0.71;85.73;102190.38;5072947;28;20507;-72
2022/03/02 05:12:41;;;;;;;0.40;0.30;;;;;;;-0.62;84.90;102191.09;5072973;28;20429;-72
2022/03/02 05:15:09;;;;;;;0.40;0.30;;;;;;;-0.56;84.85;102183.19;5072914;28;20803;-72
2022/03/02 05:17:36;;;;;;;8.60;8.00;;;;;;;-0.56;84.07;102185.03;5072556;28;20458;-73
2022/03/02 05:20:03;;;;;;;0.40;0.30;;;;;;;-0.40;83.53;102181.28;5072942;28;20445;-72
2022/03/02 05:22:30;;;;;;;0.40;0.30;;;;;;;-0.39;84.48;102185.63;5072774;28;20448;-73
2022/03/02 05:24:56;;;;;;;0.40;0.30;;;;;;;-0.39;84.72;102178.47;5074905;28;20468;-73
2022/03/02 05:27:24;;;;;;;0.40;0.30;;;;;;;-0.47;84.24;102188.41;5076670;28;20449;-73
2022/03/02 05:29:51;;;;;;;0.40;0.30;;;;;;;-0.46;83.88;102187.38;5076614;28;20445;-73
2022/03/02 05:32:18;;;;;;;0.67;0.67;;;;;;;-0.58;85.52;102182.53;5076341;28;20448;-72
2022/03/02 05:34:44;;;;;;;0.40;0.30;;;;;;;-0.49;85.08;102180.59;5076077;28;20877;-72
2022/03/02 05:37:11;;;;;;;0.40;0.30;;;;;;;-0.58;85.47;102184.38;5076541;28;20449;-73
2022/03/02 05:39:37;;;;;;;0.40;0.30;;;;;;;-0.63;85.51;102184.13;5076365;28;20514;-73
2022/03/02 05:42:04;;;;;;;0.40;0.30;;;;;;;-0.56;84.90;102187.69;5076052;28;20452;-72
2022/03/02 05:44:31;;;;;;;0.40;0.30;;;;;;;-0.62;85.58;102193.75;5075829;28;20546;-72
2022/03/02 05:46:59;;;;;;;0.40;0.30;;;;;;;-0.64;85.20;102193.13;5075600;28;20494;-71
2022/03/02 05:49:25;;;;;;;0.40;0.30;;;;;;;-0.66;85.21;102180.00;5075581;28;20934;-73
2022/03/02 05:51:52;;;;;;;0.40;0.30;;;;;;;-0.70;85.77;102191.22;5075780;28;20448;-73
2022/03/02 05:54:18;;;;;;;2.50;2.40;;;;;;;-0.59;85.44;102180.06;5075507;28;20989;-73
2022/03/02 05:56:45;;;;;;;0.40;0.30;;;;;;;-0.62;85.00;102177.78;5075758;28;20498;-74
2022/03/02 05:59:13;;;;;;;0.40;0.30;;;;;;;-0.53;84.62;102187.31;5075448;28;20942;-73
2022/03/02 06:01:41;;;;;;;0.40;0.30;;;;;;;-0.54;83.74;102180.34;5075445;28;20479;-72
2022/03/02 06:04:08;;;;;;;0.40;0.30;;;;;;;-0.64;84.76;102185.13;5075912;28;20538;-73
2022/03/02 06:06:36;;;;;;;0.40;0.30;;;;;;;-0.66;86.29;102189.84;5076257;28;20445;-73
2022/03/02 06:09:05;;;;;;;0.40;0.40;;;;;;;-0.66;86.30;102198.63;5075643;28;20961;-73
2022/03/02 06:11:32;;;;;;;0.40;0.30;;;;;;;-0.67;86.72;102180.19;5075917;28;20552;-73
2022/03/02 06:13:59;;;;;;;0.40;0.30;;;;;;;-0.71;86.63;102189.53;5076041;28;20457;-73
2022/03/02 06:16:26;;;;;;;0.40;0.30;;;;;;;-0.60;86.67;102191.75;5075801;28;20448;-72
2022/03/02 06:18:52;;;;;;;0.40;0.30;;;;;;;-0.65;85.69;102186.16;5075651;28;20453;-73
2022/03/02 06:21:27;;;;;;;0.40;0.30;;;;;;;-0.59;86.01;102182.72;5075752;28;20445;-72
2022/03/02 06:23:55;;;;;;;0.40;0.30;;;;;;;-0.63;85.56;102186.78;5075598;28;20488;-73
2022/03/02 06:26:22;;;;;;;0.40;0.30;;;;;;;-0.51;85.40;102187.94;5075681;28;20442;-73
2022/03/02 06:28:49;;;;;;;0.40;0.40;;;;;;;-0.46;84.23;102187.38;5075587;28;20891;-72
2022/03/02 06:31:16;;;;;;;0.40;0.30;;;;;;;-0.36;83.88;102187.91;5075821;28;20441;-72
2022/03/02 06:33:43;;;;;;;0.40;0.30;;;;;;;-0.31;83.50;102181.00;5075208;28;20567;-72
2022/03/02 06:36:09;;;;;;;1.00;0.93;;;;;;;-0.42;84.73;102188.66;5074656;28;20442;-72
2022/03/02 06:38:37;;;;;;;0.40;0.30;;;;;;;-0.33;85.29;102193.66;5074989;28;20467;-72
2022/03/02 06:41:05;;;;;;;2.20;2.10;;;;;;;-0.39;86.14;102198.94;5075401;28;20819;-72
2022/03/02 06:43:34;;;;;;;0.40;0.30;;;;;;;-0.38;86.42;102201.41;5075142;28;20489;-72
2022/03/02 06:46:08;;;;;;;0.40;0.30;;;;;;;-0.46;86.98;102206.03;5075321;28;20437;-73
2022/03/02 06:48:45;;;;;;;0.40;0.30;;;;;;;-0.43;87.05;102209.13;5075423;28;20497;-72
2022/03/02 06:51:14;;;;;;;0.40;0.30;;;;;;;-0.43;87.47;102201.16;5075641;28;20425;-72
2022/03/02 06:53:45;;;;;;;0.60;0.60;;;;;;;-0.23;86.55;102198.69;5075323;28;20466;-72
2022/03/02 06:56:11;;;;;;;0.40;0.30;;;;;;;-0.15;87.34;102203.88;5075386;28;20430;-72
2022/03/02 06:58:41;;;;;;;0.40;0.30;;;;;;;-0.13;87.88;102203.72;5074969;28;20442;-71
2022/03/02 07:01:10;;;;;;;0.40;0.30;;;;;;;-0.12;86.97;102203.53;5075018;28;20441;-70
2022/03/02 07:03:45;;;;;;;0.40;0.30;;;;;;;-0.13;87.48;102204.53;5074841;28;20493;-70
2022/03/02 07:06:12;;;;;;;0.40;0.30;;;;;;;0.01;86.00;102204.66;5074948;28;20426;-72
2022/03/02 07:08:43;;;;;;;0.40;0.30;;;;;;;0.16;84.96;102197.41;5074964;28;20437;-73
2022/03/02 07:11:09;;;;;;;0.40;0.30;;;;;;;0.22;83.06;102194.81;5075613;28;20438;-73
2022/03/02 07:13:37;;;;;;;0.40;0.30;;;;;;;0.25;83.44;102202.41;5074595;28;20461;-73
2022/03/02 07:16:03;;;;;;;0.40;0.30;;;;;;;0.20;85.27;102194.16;5074719;28;20464;-72
2022/03/02 07:18:30;;;;;;;0.60;0.40;;;;;;;0.30;84.83;102196.50;5074288;28;20950;-73
2022/03/02 07:20:58;;;;;;;0.40;0.30;;;;;;;0.38;84.63;102201.69;5074625;28;20450;-73
2022/03/02 07:23:29;;;;;;;0.40;0.30;;;;;;;0.43;84.10;102198.44;5074426;28;20489;-73
2022/03/02 07:26:00;;;;;;;0.40;0.30;;;;;;;0.45;84.01;102191.09;5074746;28;20437;-72
2022/03/02 07:28:27;;;;;;;0.40;0.30;;;;;;;0.48;83.82;102188.03;5074110;28;20906;-73
2022/03/02 07:30:57;;;;;;;0.40;0.30;;;;;;;0.60;83.47;102193.66;5074391;28;20464;-73
2022/03/02 07:33:25;;;;;;;0.40;0.30;;;;;;;0.72;83.43;102190.25;5074383;28;20457;-73
2022/03/02 07:35:56;;;;;;;0.40;0.30;;;;;;;0.66;84.52;102191.00;5074373;28;20445;-73
2022/03/02 07:38:23;;;;;;;0.40;0.30;;;;;;;0.73;84.60;102183.06;5074208;28;20469;-73
2022/03/02 07:40:50;;;;;;;1.03;1.03;;;;;;;0.67;86.94;102182.03;5074171;28;20821;-73
2022/03/02 07:43:18;;;;;;;0.40;0.30;;;;;;;0.85;87.25;102186.03;5074021;28;20445;-72
2022/03/02 07:45:46;;;;;;;0.40;0.30;;;;;;;0.93;87.87;102183.16;5073969;28;20445;-73
2022/03/02 07:48:14;;;;;;;1.30;1.30;;;;;;;1.15;87.02;102190.09;5073862;28;20457;-73
2022/03/02 07:50:41;;;;;;;0.40;0.30;;;;;;;1.26;87.11;102176.16;5073999;28;20452;-73
2022/03/02 07:53:12;;;;;;;0.40;0.30;;;;;;;1.43;86.86;102183.81;5073933;28;20437;-73
2022/03/02 07:55:39;;;;;;;0.40;0.30;;;;;;;1.59;86.38;102183.44;5074044;28;20903;-73
2022/03/02 07:58:06;;;;;;;0.40;0.30;;;;;;;1.75;86.04;102182.25;5073893;28;20452;-73
2022/03/02 08:00:34;;;;;;;0.40;0.40;;;;;;;1.87;85.35;102180.63;5073875;28;20445;-73
2022/03/02 08:03:01;;;;;;;1.03;0.97;;;;;;;2.00;85.00;102179.81;5073849;28;20496;-73
2022/03/02 08:05:28;;;;;;;0.40;0.30;;;;;;;2.16;84.80;102190.09;5073684;28;20567;-73
2022/03/02 08:07:54;;;;;;;0.40;0.30;;;;;;;2.28;84.52;102184.97;5073461;28;20950;-73
2022/03/02 08:10:21;;;;;;;0.40;0.30;;;;;;;2.43;83.78;102185.56;5073734;28;20441;-73
2022/03/02 08:12:48;;;;;;;2.57;2.43;;;;;;;2.57;82.13;102186.38;5073658;28;20437;-73
2022/03/02 08:15:14;;;;;;;0.40;0.30;;;;;;;2.73;80.42;102185.09;5073189;28;20461;-73
2022/03/02 08:17:43;;;;;;;0.40;0.30;;;;;;;2.83;79.22;102182.00;5073346;28;20469;-72
2022/03/02 08:20:11;;;;;;;0.40;0.30;;;;;;;2.94;77.80;102186.72;5073553;28;20445;-73
2022/03/02 08:22:44;;;;;;;0.40;0.37;;;;;;;3.03;76.12;102188.13;5073466;28;20448;-71
2022/03/02 08:25:11;;;;;;;0.50;0.47;;;;;;;3.12;75.18;102184.19;5073464;28;20952;-74
2022/03/02 08:27:39;;;;;;;0.40;0.30;;;;;;;3.22;74.28;102176.50;5073425;28;20452;-73
2022/03/02 08:30:07;;;;;;;0.40;0.30;;;;;;;3.35;73.02;102175.63;5073439;28;20815;-72
2022/03/02 08:32:37;;;;;;;0.70;0.70;;;;;;;3.43;72.17;102180.75;5073262;28;20469;-72
2022/03/02 08:35:06;;;;;;;0.40;0.30;;;;;;;3.51;71.27;102172.47;5073550;28;20527;-73
2022/03/02 08:37:33;;;;;;;0.40;0.30;;;;;;;3.62;70.83;102168.28;5073239;28;20865;-72
2022/03/02 08:40:00;;;;;;;0.40;0.30;;;;;;;3.78;70.20;102173.13;5073282;28;20452;-73
2022/03/02 08:42:27;;;;;;;0.50;0.37;;;;;;;3.91;69.20;102171.41;5073169;28;20444;-73
2022/03/02 08:44:54;;;;;;;0.70;0.70;;;;;;;3.98;68.79;102164.94;5073003;28;20534;-72
2022/03/02 08:47:22;;;;;;;0.40;0.30;;;;;;;4.07;69.09;102162.81;5073102;28;20537;-72
2022/03/02 08:49:49;;;;;;;0.40;0.30;;;;;;;4.13;68.55;102167.31;5073066;28;20441;-72
2022/03/02 08:52:18;;;;;;;0.40;0.30;;;;;;;4.19;67.74;102169.09;5073205;28;20524;-72
2022/03/02 08:54:46;;;;;;;0.40;0.33;;;;;;;4.22;67.89;102157.94;5072979;28;20454;-72
2022/03/02 08:57:13;;;;;;;0.40;0.30;;;;;;;4.31;68.68;102169.22;5073015;28;20450;-73
2022/03/02 08:59:41;;;;;;;0.40;0.20;;;;;;;4.39;68.76;102165.44;5073299;28;20445;-73
2022/03/02 09:02:09;;;;;;;0.40;0.30;;;;;;;4.47;68.79;102157.94;5077050;28;20452;-73
2022/03/02 09:04:36;;;;;;;0.40;0.30;;;;;;;4.53;68.80;102162.41;5076972;28;20484;-73
2022/03/02 09:07:04;;;;;;;0.40;0.30;;;;;;;4.62;67.97;102167.50;5077046;28;20448;-73
2022/03/02 09:09:32;;;;;;;0.40;0.30;;;;;;;4.69;64.74;102158.34;5076897;28;20440;-73
2022/03/02 09:11:59;;;;;;;0.40;0.30;;;;;;;4.75;64.68;102161.97;5076843;28;20498;-73
2022/03/02 09:14:26;;;;;;;3.30;3.10;;;;;;;4.83;64.54;102159.00;5076655;28;20465;-73
2022/03/02 09:16:52;;;;;;;3.00;2.73;;;;;;;4.92;64.88;102159.53;5076525;28;20461;-73
2022/03/02 09:19:19;;;;;;;0.40;0.30;;;;;;;4.95;64.93;102159.88;5076823;28;20452;-74
2022/03/02 09:21:46;;;;;;;0.40;0.30;;;;;;;5.03;64.99;102158.75;5076950;28;20447;-74
2022/03/02 09:24:14;;;;;;;0.40;0.30;;;;;;;5.11;64.24;102166.53;5076746;28;20492;-73
2022/03/02 09:26:41;;;;;;;0.40;0.30;;;;;;;5.15;64.37;102166.91;5076578;28;20453;-73
2022/03/02 09:29:08;;;;;;;0.40;0.30;;;;;;;5.18;63.91;102161.06;5076820;28;20437;-74
2022/03/02 09:31:36;;;;;;;0.40;0.30;;;;;;;5.23;63.26;102169.28;5076414;28;20445;-73
2022/03/02 09:34:05;;;;;;;0.40;0.30;;;;;;;5.25;61.90;102168.00;5076624;28;20457;-73
2022/03/02 09:36:36;;;;;;;0.40;0.30;;;;;;;5.34;62.27;102157.75;5076677;28;20445;-73
2022/03/02 09:39:05;;;;;;;0.40;0.30;;;;;;;5.40;62.08;102162.22;5076630;28;20456;-73
2022/03/02 09:41:42;;;;;;;0.73;0.73;;;;;;;5.44;60.74;102160.69;5076510;28;20445;-73
2022/03/02 09:44:13;;;;;;;1.60;1.50;;;;;;;5.45;60.00;102151.63;5076410;28;20511;-73
2022/03/02 09:46:40;;;;;;;0.40;0.30;;;;;;;5.48;59.23;102161.06;5076359;28;20430;-74
2022/03/02 09:49:08;;;;;;;0.40;0.30;;;;;;;5.54;58.75;102163.69;5076375;28;20437;-73
2022/03/02 09:51:37;;;;;;;0.40;0.30;;;;;;;5.54;58.60;102154.81;5075934;28;20934;-73
2022/03/02 09:54:05;;;;;;;0.40;0.30;;;;;;;5.66;58.66;102152.97;5076225;28;20461;-73
2022/03/02 09:56:35;;;;;;;0.40;0.30;;;;;;;5.73;58.50;102158.25;5076212;28;20448;-73
2022/03/02 09:59:03;;;;;;;0.50;0.50;;;;;;;5.81;58.41;102156.06;5076403;28;20533;-73
2022/03/02 10:01:33;;;;;;;0.40;0.30;;;;;;;5.93;58.08;102160.66;5076073;28;20441;-73
2022/03/02 10:04:13;;;;;;;0.40;0.30;;;;;;;6.07;58.34;102154.03;5075511;28;21045;-73
2022/03/02 10:06:43;;;;;;;0.40;0.30;;;;;;;6.14;57.78;102159.28;5076025;28;20426;-73
2022/03/02 10:09:11;;;;;;;0.40;0.30;;;;;;;6.19;56.11;102149.47;5076036;28;20429;-74
2022/03/02 10:11:41;;;;;;;0.60;0.60;;;;;;;6.23;55.61;102153.31;5075577;28;20917;-73
2022/03/02 10:14:07;;;;;;;0.40;0.30;;;;;;;6.23;55.28;102139.88;5075762;28;20463;-76
2022/03/02 10:16:42;;;;;;;0.40;0.30;;;;;;;6.29;55.50;102151.59;5075577;28;20943;-72
2022/03/02 10:19:15;;;;;;;0.40;0.30;;;;;;;6.31;55.38;102146.78;5076023;28;20433;-77
2022/03/02 10:21:49;;;;;;;0.40;0.30;;;;;;;6.23;54.60;102147.13;5075855;28;20429;-69
2022/03/02 10:24:20;;;;;;;1.00;1.00;;;;;;;6.23;54.33;102149.81;5075308;28;20492;-73
2022/03/02 10:26:51;;;;;;;0.40;0.30;;;;;;;6.27;54.59;102143.75;5075642;28;20413;-72
2022/03/02 10:29:30;;;;;;;0.40;0.30;;;;;;;6.12;53.91;102146.09;5075693;28;20429;-75
2022/03/02 10:32:05;;;;;;;4.20;3.90;;;;;;;6.13;54.53;102136.13;5075057;28;20476;-75
2022/03/02 10:34:37;;;;;;;0.50;0.50;;;;;;;6.19;54.87;102135.19;5075198;28;20468;-75
2022/03/02 10:37:13;;;;;;;0.40;0.30;;;;;;;6.28;55.29;102137.28;5075392;28;20468;-75
2022/03/02 10:39:56;;;;;;;0.60;0.60;;;;;;;6.32;54.14;102132.28;5074925;28;20915;-76
2022/03/02 10:42:26;;;;;;;0.40;0.30;;;;;;;6.36;53.99;102129.94;5073511;28;20551;-74
2022/03/02 10:45:11;;;;;;;0.40;0.30;;;;;;;6.42;53.90;102127.16;5074555;28;20492;-74
2022/03/02 10:47:48;;;;;;;1.63;1.53;;;;;;;6.43;53.01;102122.56;5075047;28;20433;-74
2022/03/02 10:50:15;;;;;;;0.40;0.30;;;;;;;6.47;52.60;102123.75;5075347;28;20422;-74
2022/03/02 10:52:41;;;;;;;0.40;0.30;;;;;;;6.45;52.52;102123.97;5075216;28;20450;-74
2022/03/02 10:55:13;;;;;;;0.50;0.30;;;;;;;6.57;52.54;102122.09;5075117;28;20460;-74
2022/03/02 10:57:39;;;;;;;0.40;0.30;;;;;;;6.60;51.57;102120.81;5075156;28;20438;-74
2022/03/02 11:00:12;;;;;;;10.27;8.97;;;;;;;6.67;51.39;102115.28;5075048;28;20946;-74
2022/03/02 11:02:42;;;;;;;0.40;0.40;;;;;;;6.86;51.77;102118.63;5074790;28;20797;-71
2022/03/02 11:05:11;;;;;;;0.40;0.30;;;;;;;6.99;50.32;102123.75;5074856;28;20485;-72
2022/03/02 11:07:38;;;;;;;0.40;0.30;;;;;;;7.12;50.11;102123.47;5074749;28;20488;-75
2022/03/02 11:10:09;;;;;;;0.40;0.30;;;;;;;7.27;50.05;102117.56;5075376;28;20468;-75
2022/03/02 11:12:36;;;;;;;0.40;0.30;;;;;;;7.23;48.69;102114.53;5074894;28;20437;-74
2022/03/02 11:15:07;;;;;;;2.33;2.23;;;;;;;7.26;47.93;102113.22;5075011;28;20469;-74
2022/03/02 11:17:33;;;;;;;0.40;0.30;;;;;;;7.26;47.80;102119.44;5074496;28;20469;-74
2022/03/02 11:20:06;;;;;;;0.40;0.30;;;;;;;7.33;47.95;102106.63;5074743;28;20441;-74
2022/03/02 11:22:33;;;;;;;0.40;0.30;;;;;;;7.36;48.28;102105.34;5074203;28;20429;-75
2022/03/02 11:25:00;;;;;;;0.40;0.20;;;;;;;7.36;47.84;102096.44;5074610;28;20995;-74
2022/03/02 11:27:29;;;;;;;1.43;1.33;;;;;;;7.34;47.82;102097.47;5074452;28;20794;-74
2022/03/02 11:30:05;;;;;;;1.80;1.70;;;;;;;7.39;48.08;102090.53;5074402;28;20457;-75
2022/03/02 11:32:33;;;;;;;0.40;0.30;;;;;;;7.36;48.03;102093.75;5074901;28;20437;-74